Time;durP1;ratioP1;P1;durP2;ratioP2;P2;SDS_P1;SDS_P2;PMS_P1;PMS_P2;Temp;Humidity;BMP_temperature;BMP_pressure;BME280_temperature;BME280_humidity;BME280_pressure;Samples;Min_cycle;Max_cycle;Signal;HPM_P1;HPM_P2
2022/04/02 00:01:50;;;;;;;22.48;16.83;;;;;;;2.72;100.00;94808.06;5036606;28;20060;-60
2022/04/02 00:04:20;;;;;;;25.73;18.67;;;;;;;2.68;100.00;94802.31;5050413;28;20061;-61
2022/04/02 00:06:52;;;;;;;21.65;15.90;;;;;;;2.50;100.00;94809.97;5050763;28;20533;-60
2022/04/02 00:09:21;;;;;;;22.35;16.95;;;;;;;2.70;100.00;94802.19;5050296;28;20073;-60
2022/04/02 00:11:50;;;;;;;21.85;15.32;;;;;;;2.49;100.00;94804.91;5052089;28;20085;-61
2022/04/02 00:14:18;;;;;;;19.25;13.20;;;;;;;2.51;100.00;94809.03;5070453;28;20068;-60
2022/04/02 00:16:46;;;;;;;17.60;13.07;;;;;;;2.51;100.00;94810.78;5057947;28;20052;-60
2022/04/02 00:19:15;;;;;;;18.85;13.93;;;;;;;2.39;100.00;94807.50;5050522;28;20057;-60
2022/04/02 00:21:45;;;;;;;16.88;11.85;;;;;;;2.38;100.00;94819.69;5042370;28;20071;-61
2022/04/02 00:24:13;;;;;;;19.17;13.43;;;;;;;2.30;100.00;94808.31;5050765;28;20071;-60
2022/04/02 00:26:41;;;;;;;23.02;16.92;;;;;;;2.38;100.00;94811.88;5050455;28;20095;-59
2022/04/02 00:29:11;;;;;;;20.77;14.73;;;;;;;2.22;100.00;94808.16;5050344;28;20064;-57
2022/04/02 00:31:40;;;;;;;24.63;15.48;;;;;;;2.39;100.00;94812.72;5049513;28;20068;-61
2022/04/02 00:34:09;;;;;;;26.55;19.10;;;;;;;2.41;100.00;94809.97;5050089;28;20068;-60
2022/04/02 00:36:38;;;;;;;25.90;18.33;;;;;;;2.41;100.00;94805.59;5065269;28;20083;-60
2022/04/02 00:39:08;;;;;;;27.10;17.30;;;;;;;2.38;100.00;94816.28;5050003;28;20079;-54
2022/04/02 00:41:37;;;;;;;27.70;16.88;;;;;;;2.34;100.00;94801.88;5050256;28;20069;-59
2022/04/02 00:44:11;;;;;;;23.80;16.98;;;;;;;2.46;100.00;94802.59;5055630;28;20506;-60
2022/04/02 00:46:40;;;;;;;22.95;15.60;;;;;;;2.38;100.00;94811.88;5063708;28;20076;-59
2022/04/02 00:49:09;;;;;;;27.83;18.73;;;;;;;2.51;100.00;94809.03;5049302;28;20068;-57
2022/04/02 00:51:41;;;;;;;26.60;17.80;;;;;;;2.28;100.00;94811.06;5049229;28;20348;-59
2022/04/02 00:54:13;;;;;;;25.02;18.73;;;;;;;2.25;100.00;94820.91;5065399;28;20083;-60
2022/04/02 00:56:42;;;;;;;25.58;17.75;;;;;;;2.30;100.00;94816.94;5050215;28;20079;-59
2022/04/02 00:59:11;;;;;;;22.48;14.93;;;;;;;2.26;100.00;94812.94;5045430;28;20546;-59
2022/04/02 01:01:39;;;;;;;29.05;20.27;;;;;;;2.13;100.00;94815.81;5030349;28;20550;-60
2022/04/02 01:04:08;;;;;;;20.95;15.13;;;;;;;2.00;100.00;94817.84;5049660;28;20064;-60
2022/04/02 01:06:36;;;;;;;23.23;16.90;;;;;;;2.05;100.00;94814.84;5049422;28;20064;-59
2022/04/02 01:09:04;;;;;;;26.50;18.88;;;;;;;2.01;100.00;94813.47;5029720;28;20488;-59
2022/04/02 01:11:38;;;;;;;25.50;18.50;;;;;;;2.01;100.00;94819.47;5030119;28;20080;-60
2022/04/02 01:14:07;;;;;;;30.02;20.38;;;;;;;2.11;100.00;94822.94;5068830;28;20087;-59
2022/04/02 01:16:35;;;;;;;31.23;22.40;;;;;;;2.14;100.00;94825.25;5052047;28;20080;-58
2022/04/02 01:19:04;;;;;;;25.63;17.73;;;;;;;2.17;100.00;94824.19;5049117;28;20075;-60
2022/04/02 01:21:33;;;;;;;27.45;19.20;;;;;;;2.14;100.00;94837.44;5049275;28;20068;-59
2022/04/02 01:24:03;;;;;;;25.13;17.38;;;;;;;1.86;100.00;94828.63;5049089;28;20072;-60
2022/04/02 01:26:32;;;;;;;27.23;18.13;;;;;;;1.92;100.00;94830.66;5049668;28;20550;-59
2022/04/02 01:29:01;;;;;;;23.27;16.55;;;;;;;1.71;100.00;94835.09;5048917;28;20057;-60
2022/04/02 01:31:29;;;;;;;25.27;17.70;;;;;;;2.43;100.00;94831.47;5048528;28;20073;-60
2022/04/02 01:33:58;;;;;;;26.38;18.05;;;;;;;1.94;100.00;94836.56;5048991;28;20057;-60
2022/04/02 01:36:27;;;;;;;30.00;22.08;;;;;;;1.87;100.00;94838.03;5049136;28;20072;-59
2022/04/02 01:38:55;;;;;;;23.75;17.08;;;;;;;2.00;100.00;94841.25;5049155;28;20074;-60
2022/04/02 01:41:24;;;;;;;22.40;17.52;;;;;;;1.80;100.00;94845.53;5049010;28;20069;-60
2022/04/02 01:43:53;;;;;;;27.90;18.90;;;;;;;2.11;100.00;94848.94;5049074;28;20132;-60
2022/04/02 01:46:22;;;;;;;23.33;17.15;;;;;;;1.90;100.00;94853.38;5048824;28;20483;-59
2022/04/02 01:48:50;;;;;;;26.55;20.42;;;;;;;1.75;100.00;94847.69;5048604;28;20087;-59
2022/04/02 01:51:19;;;;;;;24.23;16.83;;;;;;;2.00;100.00;94840.41;5048635;28;20088;-60
2022/04/02 01:53:47;;;;;;;26.35;19.65;;;;;;;1.80;100.00;94845.53;5049256;28;20542;-60
2022/04/02 01:56:15;;;;;;;25.17;18.83;;;;;;;2.06;100.00;94845.06;5048617;28;20535;-60
2022/04/02 01:58:45;;;;;;;24.15;17.42;;;;;;;1.75;100.00;94844.28;5048048;28;20092;-57
2022/04/02 02:01:14;;;;;;;27.42;18.92;;;;;;;2.12;100.00;94845.34;5028962;28;20061;-60
2022/04/02 02:03:43;;;;;;;27.40;17.70;;;;;;;1.97;100.00;94854.50;5042794;28;20076;-60
2022/04/02 02:06:11;;;;;;;24.52;18.40;;;;;;;2.09;100.00;94858.63;5048427;28;20084;-60
2022/04/02 02:08:39;;;;;;;27.95;19.38;;;;;;;1.98;100.00;94856.13;5048904;28;20072;-58
2022/04/02 02:11:08;;;;;;;25.98;18.33;;;;;;;1.73;100.00;94857.41;5046971;28;20061;-60
2022/04/02 02:13:36;;;;;;;27.48;18.48;;;;;;;1.86;100.00;94862.41;5035932;28;20065;-60
2022/04/02 02:16:06;;;;;;;31.73;23.10;;;;;;;1.69;100.00;94856.03;5028447;28;20136;-60
2022/04/02 02:18:34;;;;;;;30.83;20.58;;;;;;;1.75;100.00;94860.69;5033633;28;20063;-59
2022/04/02 02:21:03;;;;;;;23.10;15.77;;;;;;;1.75;100.00;94862.47;5047248;28;20064;-59
2022/04/02 02:23:31;;;;;;;22.73;14.68;;;;;;;1.83;100.00;94870.44;5048251;28;20068;-60
2022/04/02 02:25:59;;;;;;;26.02;16.60;;;;;;;1.70;100.00;94856.84;5048429;28;20068;-60
2022/04/02 02:28:28;;;;;;;24.20;16.63;;;;;;;1.93;100.00;94871.31;5048650;28;20057;-60
2022/04/02 02:30:58;;;;;;;23.40;16.27;;;;;;;1.74;100.00;94866.03;5047725;28;20549;-60
2022/04/02 02:36:13;;;;;;;21.08;16.20;;;;;;;1.60;100.00;94873.22;5048300;28;19971;-58
2022/04/02 02:38:42;;;;;;;23.95;16.30;;;;;;;1.64;100.00;94866.78;5048626;28;20075;-60
2022/04/02 02:41:11;;;;;;;22.02;15.73;;;;;;;1.61;100.00;94868.81;5046854;28;20052;-60
2022/04/02 02:43:39;;;;;;;23.45;14.60;;;;;;;1.67;100.00;94871.72;5048331;28;20068;-59
2022/04/02 02:46:08;;;;;;;23.95;14.88;;;;;;;1.42;100.00;94872.97;5048406;28;20549;-60
2022/04/02 02:48:37;;;;;;;20.00;13.75;;;;;;;1.51;100.00;94873.16;5048091;28;20071;-61
2022/04/02 02:51:05;;;;;;;23.70;16.75;;;;;;;1.45;100.00;94879.69;5047986;28;20455;-62
2022/04/02 02:53:34;;;;;;;24.50;16.65;;;;;;;1.38;100.00;94874.19;5048665;28;20481;-60
2022/04/02 02:56:02;;;;;;;22.92;15.05;;;;;;;1.55;100.00;94872.78;5048603;28;20069;-60
2022/04/02 02:58:30;;;;;;;23.30;14.23;;;;;;;1.53;100.00;94884.25;5047808;28;20065;-60
2022/04/02 03:00:59;;;;;;;27.55;17.30;;;;;;;1.62;100.00;94878.28;5029129;28;20062;-61
2022/04/02 03:03:27;;;;;;;20.88;14.88;;;;;;;1.47;100.00;94876.97;5036695;28;20061;-59
2022/04/02 03:05:57;;;;;;;19.48;12.50;;;;;;;1.51;100.00;94878.34;5048837;28;20079;-61
2022/04/02 03:08:25;;;;;;;22.50;15.10;;;;;;;1.46;100.00;94883.94;5047993;28;20079;-60
2022/04/02 03:10:54;;;;;;;20.48;14.75;;;;;;;1.37;100.00;94887.28;5051482;28;20463;-61
2022/04/02 03:13:22;;;;;;;21.85;16.02;;;;;;;1.33;100.00;94886.72;5051358;28;20065;-60
2022/04/02 03:15:52;;;;;;;22.50;13.90;;;;;;;1.32;100.00;94887.69;5051589;28;20091;-61
2022/04/02 03:18:20;;;;;;;14.25;9.93;;;;;;;1.19;100.00;94892.22;5051683;28;20069;-60
2022/04/02 03:20:48;;;;;;;19.85;12.35;;;;;;;1.36;100.00;94886.47;5052523;28;20091;-60
2022/04/02 03:23:18;;;;;;;16.48;11.52;;;;;;;1.33;100.00;94889.31;5051654;28;20060;-60
2022/04/02 03:25:46;;;;;;;21.02;14.45;;;;;;;1.43;100.00;94894.56;5051080;28;20065;-60
2022/04/02 03:28:15;;;;;;;16.95;13.48;;;;;;;1.32;100.00;94892.88;5051263;28;20133;-61
2022/04/02 03:30:43;;;;;;;24.40;16.02;;;;;;;1.64;100.00;94895.38;5051443;28;20076;-61
2022/04/02 03:33:11;;;;;;;26.20;15.23;;;;;;;1.49;100.00;94888.88;5051707;28;20107;-61
2022/04/02 03:35:40;;;;;;;17.95;13.20;;;;;;;1.59;100.00;94894.13;5051751;28;20438;-60
2022/04/02 03:38:09;;;;;;;22.65;12.52;;;;;;;1.50;100.00;94897.47;5051194;28;20056;-61
2022/04/02 03:40:38;;;;;;;19.92;13.93;;;;;;;1.47;100.00;94898.56;5051276;28;20531;-61
2022/04/02 03:43:07;;;;;;;22.83;16.30;;;;;;;1.41;100.00;94896.47;5051500;28;20061;-61
2022/04/02 03:45:35;;;;;;;23.20;15.30;;;;;;;1.41;100.00;94897.31;5050971;28;20083;-61
2022/04/02 03:48:04;;;;;;;27.15;15.27;;;;;;;1.54;100.00;94896.28;5051242;28;20096;-61
2022/04/02 03:50:32;;;;;;;20.88;15.30;;;;;;;1.34;100.00;94908.31;5051599;28;20091;-61
2022/04/02 03:53:00;;;;;;;22.75;15.13;;;;;;;1.52;100.00;94903.38;5051024;28;20069;-57
2022/04/02 03:55:29;;;;;;;27.42;18.88;;;;;;;1.13;100.00;94909.13;5051150;28;20056;-61
2022/04/02 03:57:58;;;;;;;25.42;15.63;;;;;;;1.36;100.00;94912.44;5051007;28;20067;-61
2022/04/02 04:00:27;;;;;;;19.57;12.63;;;;;;;1.52;100.00;94914.59;5035955;28;20107;-59
2022/04/02 04:02:55;;;;;;;15.30;9.18;;;;;;;1.31;100.00;94912.00;5031908;28;20902;-60
2022/04/02 04:05:23;;;;;;;18.70;12.48;;;;;;;1.38;100.00;94922.72;5050321;28;20091;-61
2022/04/02 04:07:52;;;;;;;23.85;14.55;;;;;;;1.32;100.00;94913.66;5050789;28;20068;-59
2022/04/02 04:10:20;;;;;;;22.63;14.10;;;;;;;1.36;100.00;94919.41;5030512;28;20081;-61
2022/04/02 04:12:49;;;;;;;21.85;13.32;;;;;;;1.27;100.00;94928.75;5049407;28;20051;-61
2022/04/02 04:15:18;;;;;;;19.58;13.57;;;;;;;1.27;100.00;94936.56;5050842;28;20085;-61
2022/04/02 04:17:47;;;;;;;26.73;14.90;;;;;;;1.33;100.00;94938.66;5031396;28;20089;-60
2022/04/02 04:20:15;;;;;;;21.50;12.75;;;;;;;1.24;100.00;94934.22;5048202;28;20079;-61
2022/04/02 04:22:43;;;;;;;23.77;13.63;;;;;;;1.19;100.00;94944.97;5050130;28;20060;-61
2022/04/02 04:25:11;;;;;;;23.00;15.93;;;;;;;1.31;100.00;94948.34;5050256;28;20069;-61
2022/04/02 04:27:40;;;;;;;25.80;12.57;;;;;;;1.04;100.00;94948.81;5050291;28;20251;-59
2022/04/02 04:30:09;;;;;;;20.10;13.50;;;;;;;1.31;100.00;94950.97;5050051;28;20076;-61
2022/04/02 04:32:39;;;;;;;29.38;13.27;;;;;;;1.08;100.00;94957.19;5050816;28;20077;-61
2022/04/02 04:35:08;;;;;;;27.75;17.27;;;;;;;1.07;100.00;94958.16;5050294;28;20067;-60
2022/04/02 04:37:37;;;;;;;23.27;13.80;;;;;;;0.95;100.00;94962.53;5050168;28;20064;-60
2022/04/02 04:40:08;;;;;;;24.33;15.25;;;;;;;1.14;100.00;94954.09;5049085;28;20061;-60
2022/04/02 04:42:36;;;;;;;22.83;13.45;;;;;;;0.83;100.00;94963.53;5050436;28;20515;-60
2022/04/02 04:45:05;;;;;;;29.45;17.58;;;;;;;0.71;100.00;94965.31;5050013;28;20092;-61
2022/04/02 04:47:33;;;;;;;29.13;14.80;;;;;;;1.06;100.00;94972.03;5050344;28;20081;-61
2022/04/02 04:50:03;;;;;;;27.30;17.23;;;;;;;1.05;100.00;94965.22;5049841;28;20060;-60
2022/04/02 04:52:31;;;;;;;24.58;16.15;;;;;;;1.08;100.00;94963.19;5049836;28;20479;-61
2022/04/02 04:55:01;;;;;;;29.27;18.85;;;;;;;1.04;100.00;94968.78;5049982;28;20069;-61
2022/04/02 04:57:29;;;;;;;28.20;16.73;;;;;;;0.97;100.00;94976.22;5049717;28;20065;-61
2022/04/02 04:59:58;;;;;;;21.55;12.80;;;;;;;1.01;100.00;94982.00;5041948;28;20099;-61
2022/04/02 05:02:26;;;;;;;28.17;15.45;;;;;;;1.18;100.00;94982.28;5049471;28;21446;-61
2022/04/02 05:04:54;;;;;;;25.77;17.13;;;;;;;1.16;100.00;94978.16;5048843;28;20452;-61
2022/04/02 05:07:29;;;;;;;29.67;17.35;;;;;;;1.08;100.00;94989.16;5049771;28;20060;-61
2022/04/02 05:09:57;;;;;;;;;;;;;;;0.98;100.00;94985.66;5049735;28;20060;-61
2022/04/02 05:12:25;;;;;;;27.08;15.75;;;;;;;1.17;100.00;94995.38;5055494;28;19959;-60
2022/04/02 05:14:54;;;;;;;29.83;16.50;;;;;;;1.34;100.00;94996.59;5056803;28;20084;-61
2022/04/02 05:17:22;;;;;;;25.05;17.20;;;;;;;1.16;100.00;94991.13;5049334;28;20487;-60
2022/04/02 05:19:51;;;;;;;28.23;15.45;;;;;;;1.37;100.00;94998.94;5048476;28;20065;-61
2022/04/02 05:22:19;;;;;;;28.20;15.57;;;;;;;1.26;100.00;94999.00;5049171;28;20060;-61
2022/04/02 05:24:49;;;;;;;25.63;16.20;;;;;;;1.65;100.00;95006.16;5048968;28;20653;-61
2022/04/02 05:27:17;;;;;;;26.00;16.02;;;;;;;1.58;100.00;95002.41;5049563;28;20080;-61
2022/04/02 05:29:46;;;;;;;26.45;15.05;;;;;;;1.29;100.00;95003.94;5049712;28;20084;-61
2022/04/02 05:32:14;;;;;;;25.25;14.68;;;;;;;1.45;100.00;95001.78;5048823;28;20061;-61
2022/04/02 05:34:42;;;;;;;29.27;17.65;;;;;;;1.47;100.00;95010.25;5048642;28;20072;-61
2022/04/02 05:37:11;;;;;;;27.35;15.63;;;;;;;1.37;100.00;95007.56;5049108;28;20069;-61
2022/04/02 05:39:39;;;;;;;24.60;15.45;;;;;;;1.44;100.00;95005.28;5048531;28;20060;-61
2022/04/02 05:42:08;;;;;;;31.17;17.48;;;;;;;1.40;100.00;95015.09;5049073;28;20057;-61
2022/04/02 05:44:37;;;;;;;29.93;16.47;;;;;;;1.75;100.00;95016.59;5049547;28;20080;-61
2022/04/02 05:47:06;;;;;;;29.27;17.20;;;;;;;1.63;100.00;95020.22;5049238;28;20490;-61
2022/04/02 05:49:47;;;;;;;24.58;15.93;;;;;;;1.72;100.00;95021.22;5048625;28;20060;-61
2022/04/02 05:52:15;;;;;;;23.95;16.45;;;;;;;1.80;100.00;95022.25;5048710;28;20076;-60
2022/04/02 05:54:43;;;;;;;29.52;17.20;;;;;;;1.86;100.00;95020.94;5048573;28;20065;-61
2022/04/02 05:57:13;;;;;;;27.85;18.52;;;;;;;1.64;100.00;95032.25;5048736;28;20088;-61
2022/04/02 05:59:42;;;;;;;26.25;17.00;;;;;;;2.09;100.00;95035.41;5036645;28;20304;-59
2022/04/02 06:02:12;;;;;;;21.38;12.93;;;;;;;1.95;100.00;95038.34;5028558;28;20092;-61
2022/04/02 06:04:40;;;;;;;26.23;15.40;;;;;;;1.96;100.00;95040.00;5044143;28;20065;-61
2022/04/02 06:07:08;;;;;;;24.85;14.82;;;;;;;1.81;100.00;95046.47;5049048;28;20486;-61
2022/04/02 06:09:36;;;;;;;21.13;13.02;;;;;;;1.58;100.00;95048.31;5048643;28;20522;-60
2022/04/02 06:12:05;;;;;;;26.42;15.07;;;;;;;1.85;100.00;95038.28;5051380;28;20125;-61
2022/04/02 06:14:34;;;;;;;20.65;14.25;;;;;;;1.78;100.00;95044.94;5061584;28;20088;-61
2022/04/02 06:17:03;;;;;;;19.35;12.18;;;;;;;2.07;100.00;95049.50;5055250;28;20071;-60
2022/04/02 06:19:31;;;;;;;17.73;12.45;;;;;;;1.74;100.00;95050.50;5061606;28;20530;-60
2022/04/02 06:22:01;;;;;;;22.10;14.43;;;;;;;1.78;100.00;95047.53;5048457;28;20083;-61
2022/04/02 06:24:29;;;;;;;16.40;11.43;;;;;;;1.74;100.00;95050.50;5048787;28;20060;-61
2022/04/02 06:27:00;;;;;;;23.15;14.20;;;;;;;1.82;100.00;95059.31;5048440;28;20262;-60
2022/04/02 06:29:28;;;;;;;17.13;11.90;;;;;;;1.88;100.00;95061.41;5048676;28;20076;-60
2022/04/02 06:31:58;;;;;;;21.70;13.75;;;;;;;2.10;100.00;95057.06;5047859;28;20079;-60
2022/04/02 06:34:26;;;;;;;24.45;15.15;;;;;;;2.01;100.00;95057.81;5041271;28;20569;-60
2022/04/02 06:36:55;;;;;;;22.95;13.38;;;;;;;2.32;100.00;95064.72;5048593;28;20044;-61
2022/04/02 06:39:23;;;;;;;21.95;13.70;;;;;;;2.16;100.00;95066.13;5047916;28;20067;-58
2022/04/02 06:41:51;;;;;;;25.35;13.95;;;;;;;2.16;100.00;95076.50;5048952;28;20099;-59
2022/04/02 06:44:20;;;;;;;17.02;11.93;;;;;;;2.02;100.00;95073.28;5050924;28;20072;-60
2022/04/02 06:46:48;;;;;;;20.80;11.50;;;;;;;2.08;100.00;95074.56;5052305;28;20071;-60
2022/04/02 06:49:17;;;;;;;16.25;10.57;;;;;;;2.21;100.00;95079.56;5052375;28;20076;-59
2022/04/02 06:51:46;;;;;;;20.40;13.80;;;;;;;2.33;100.00;95083.72;5051855;28;20056;-60
2022/04/02 06:54:14;;;;;;;20.35;13.30;;;;;;;2.78;100.00;95071.22;5051752;28;20087;-60
2022/04/02 06:56:43;;;;;;;21.15;13.93;;;;;;;2.43;100.00;95076.00;5032839;28;20089;-59
2022/04/02 06:59:12;;;;;;;19.10;12.85;;;;;;;2.94;100.00;95073.31;5035914;28;20064;-57
2022/04/02 07:01:40;;;;;;;21.05;12.48;;;;;;;2.59;100.00;95084.16;5052255;28;20073;-60
2022/04/02 07:04:08;;;;;;;19.60;12.45;;;;;;;2.52;100.00;95080.44;5051938;28;20463;-60
2022/04/02 07:06:44;;;;;;;18.30;12.15;;;;;;;2.59;100.00;95079.78;5051898;28;20064;-58
2022/04/02 07:09:14;;;;;;;16.52;10.68;;;;;;;2.40;100.00;95097.88;5051762;28;20109;-60
2022/04/02 07:11:43;;;;;;;20.15;13.63;;;;;;;2.64;100.00;95100.19;5052268;28;20080;-60
2022/04/02 07:14:11;;;;;;;17.25;10.10;;;;;;;2.54;100.00;95091.50;5071041;28;20060;-58
2022/04/02 07:16:40;;;;;;;21.33;13.30;;;;;;;2.40;100.00;95097.88;5051893;28;20076;-61
2022/04/02 07:19:09;;;;;;;21.58;12.45;;;;;;;2.74;100.00;95102.84;5051386;28;20064;-58
2022/04/02 07:21:41;;;;;;;20.20;12.13;;;;;;;2.92;100.00;95113.47;5051729;28;20069;-59
2022/04/02 07:24:11;;;;;;;19.00;11.07;;;;;;;2.60;100.00;95115.25;5051841;28;20087;-59
2022/04/02 07:26:40;;;;;;;18.80;12.23;;;;;;;2.59;100.00;95123.19;5032177;28;20077;-58
2022/04/02 07:29:10;;;;;;;18.60;12.52;;;;;;;2.70;100.00;95124.88;5031551;28;20065;-56
2022/04/02 07:31:38;;;;;;;11.40;8.63;;;;;;;2.58;100.00;95135.38;5030795;28;20088;-60
2022/04/02 07:34:06;;;;;;;17.48;12.60;;;;;;;2.44;100.00;95129.66;5041941;28;20571;-59
2022/04/02 07:36:45;;;;;;;15.70;10.63;;;;;;;2.26;100.00;95142.41;5050837;28;20060;-57
2022/04/02 07:39:16;;;;;;;22.67;12.45;;;;;;;2.29;100.00;95147.38;5050973;28;20084;-59
2022/04/02 07:41:46;;;;;;;17.15;12.90;;;;;;;2.40;100.00;95144.69;5031646;28;20077;-59
2022/04/02 07:44:21;;;;;;;18.90;12.35;;;;;;;2.71;100.00;95148.16;5031417;28;20065;-60
2022/04/02 07:46:50;;;;;;;19.63;13.35;;;;;;;2.92;100.00;95148.13;5031291;28;20076;-59
2022/04/02 07:49:21;;;;;;;20.02;12.38;;;;;;;2.49;100.00;95150.94;5038751;28;20060;-59
2022/04/02 07:51:53;;;;;;;22.20;12.10;;;;;;;2.26;100.00;95160.63;5043903;28;20063;-60
2022/04/02 07:54:24;;;;;;;15.73;11.65;;;;;;;2.47;100.00;95161.44;5050232;28;20079;-59
2022/04/02 07:56:56;;;;;;;18.48;11.23;;;;;;;2.54;100.00;95167.78;5031609;28;20096;-57
2022/04/02 07:59:30;;;;;;;16.20;11.27;;;;;;;2.45;100.00;95167.75;5036489;28;20045;-59
2022/04/02 08:01:59;;;;;;;19.50;12.38;;;;;;;2.89;100.00;95171.84;5050961;28;20061;-60
2022/04/02 08:04:28;;;;;;;20.90;12.40;;;;;;;3.07;100.00;95175.47;5050748;28;20069;-60
2022/04/02 08:06:58;;;;;;;18.97;12.70;;;;;;;2.75;100.00;95169.56;5050415;28;20506;-60
2022/04/02 08:09:27;;;;;;;18.37;13.30;;;;;;;3.05;100.00;95176.56;5050124;28;20478;-60
2022/04/02 08:11:56;;;;;;;20.10;12.93;;;;;;;2.74;100.00;95178.31;5034528;28;20107;-60
2022/04/02 08:14:25;;;;;;;15.27;8.32;;;;;;;2.50;100.00;95184.59;5070902;28;20068;-60
2022/04/02 08:16:53;;;;;;;16.48;10.88;;;;;;;2.82;100.00;95179.34;5050395;28;20472;-60
2022/04/02 08:19:23;;;;;;;20.55;11.82;;;;;;;3.05;100.00;95187.78;5050255;28;20071;-60
2022/04/02 08:21:51;;;;;;;14.63;11.05;;;;;;;2.92;100.00;95188.97;5050593;28;20065;-60
2022/04/02 08:24:21;;;;;;;19.60;11.32;;;;;;;3.37;100.00;95191.22;5050795;28;20096;-60
2022/04/02 08:26:56;;;;;;;13.50;10.03;;;;;;;2.96;100.00;95196.41;5050216;28;20119;-60
2022/04/02 08:29:33;;;;;;;20.40;12.40;;;;;;;3.50;100.00;95200.44;5047569;28;20480;-59
2022/04/02 08:32:10;;;;;;;15.40;12.00;;;;;;;3.26;100.00;95202.56;5030135;28;20100;-60
2022/04/02 08:34:49;;;;;;;18.25;11.32;;;;;;;3.70;100.00;95201.34;5045167;28;20063;-60
2022/04/02 08:37:25;;;;;;;16.75;10.65;;;;;;;3.34;100.00;95213.16;5047464;28;20061;-59
2022/04/02 08:40:02;;;;;;;16.23;10.93;;;;;;;3.51;100.00;95209.94;5050158;28;20057;-60
2022/04/02 08:42:48;;;;;;;16.98;10.98;;;;;;;3.69;100.00;95217.13;5050219;28;20068;-60
2022/04/02 08:45:24;;;;;;;13.73;9.52;;;;;;;3.43;100.00;95227.16;5049666;28;20084;-58
2022/04/02 08:48:22;;;;;;;15.05;9.30;;;;;;;3.55;100.00;95228.75;5049741;28;20083;-60
2022/04/02 08:50:51;;;;;;;14.95;10.20;;;;;;;3.57;100.00;95225.03;5049101;28;21507;-58
2022/04/02 08:53:21;;;;;;;13.85;9.10;;;;;;;3.19;100.00;95230.09;5049586;28;20037;-60
2022/04/02 08:55:52;;;;;;;16.42;10.20;;;;;;;3.88;100.00;95232.78;5049611;28;20146;-60
2022/04/02 08:58:26;;;;;;;16.08;9.38;;;;;;;3.63;100.00;95241.94;5049890;28;20107;-59
2022/04/02 09:01:05;;;;;;;18.30;9.45;;;;;;;3.59;100.00;95237.13;5040406;28;20085;-60
2022/04/02 09:03:54;;;;;;;11.98;8.63;;;;;;;3.30;100.00;95243.00;5049162;28;20061;-60
2022/04/02 09:06:42;;;;;;;13.90;10.50;;;;;;;3.39;100.00;95255.28;5049119;28;20068;-60
2022/04/02 09:09:17;;;;;;;11.73;9.48;;;;;;;3.49;100.00;95258.75;5049764;28;20076;-60
2022/04/02 09:12:03;;;;;;;17.90;11.30;;;;;;;3.29;100.00;95264.81;5050186;28;20052;-57
2022/04/02 09:14:41;;;;;;;12.18;8.82;;;;;;;3.66;100.00;95270.34;5069154;28;20377;-60
2022/04/02 09:17:35;;;;;;;17.25;11.38;;;;;;;3.63;100.00;95269.78;5050818;28;20124;-60
2022/04/02 09:20:14;;;;;;;17.40;11.52;;;;;;;3.65;100.00;95268.69;5048850;28;20162;-58
2022/04/02 09:22:55;;;;;;;16.38;10.18;;;;;;;3.38;100.00;95273.66;5049778;28;20045;-59
2022/04/02 09:25:43;;;;;;;16.85;10.88;;;;;;;3.28;100.00;95276.22;5048711;28;20064;-60
2022/04/02 09:28:25;;;;;;;15.77;11.32;;;;;;;3.85;100.00;95268.75;5048977;28;20072;-59
2022/04/02 09:31:29;;;;;;;18.50;11.75;;;;;;;3.79;100.00;95283.16;5048834;28;20073;-57
2022/04/02 09:34:18;;;;;;;18.73;12.70;;;;;;;3.92;100.00;95280.28;5048941;28;20072;-59
2022/04/02 09:36:59;;;;;;;17.38;9.68;;;;;;;3.48;100.00;95284.94;5043331;28;20071;-59
2022/04/02 09:39:31;;;;;;;;;;;;;;;3.47;100.00;95278.06;5049168;28;20523;-60
2022/04/02 09:42:19;;;;;;;14.10;10.43;;;;;;;3.91;100.00;95289.06;5049034;28;19956;-59
2022/04/02 09:44:58;;;;;;;13.48;9.68;;;;;;;4.02;100.00;95284.56;5044271;28;20295;-59
2022/04/02 09:47:49;;;;;;;14.05;9.23;;;;;;;3.38;100.00;95297.09;5048604;28;20344;-60
2022/04/02 09:50:19;;;;;;;9.70;6.63;;;;;;;3.20;100.00;95286.44;5047122;28;20084;-60
2022/04/02 09:52:54;;;;;;;15.13;10.68;;;;;;;3.43;100.00;95305.34;5048742;28;20064;-59
2022/04/02 09:55:24;;;;;;;15.40;11.02;;;;;;;3.33;100.00;95298.28;5048406;28;20060;-58
2022/04/02 09:58:26;;;;;;;14.88;10.63;;;;;;;3.41;100.00;95292.47;5049265;28;20060;-57
2022/04/02 10:01:03;;;;;;;19.40;11.18;;;;;;;3.43;100.00;95295.75;5042044;28;20068;-60
2022/04/02 10:03:34;;;;;;;18.13;11.20;;;;;;;3.53;100.00;95301.00;5049035;28;20079;-60
2022/04/02 10:06:15;;;;;;;17.38;10.98;;;;;;;3.81;100.00;95302.91;5048461;28;20092;-59
2022/04/02 10:08:57;;;;;;;14.60;10.43;;;;;;;3.79;100.00;95304.00;5048879;28;20087;-59
2022/04/02 10:11:29;;;;;;;11.55;8.35;;;;;;;3.30;100.00;95311.59;5047946;28;20406;-59
2022/04/02 10:13:59;;;;;;;16.50;10.80;;;;;;;3.55;100.00;95312.13;5067313;28;20527;-59
2022/04/02 10:16:30;;;;;;;16.98;11.10;;;;;;;3.09;100.00;95310.75;5058800;28;20079;-59
2022/04/02 10:18:59;;;;;;;14.38;10.52;;;;;;;3.43;100.00;95318.38;5048020;28;20072;-59
2022/04/02 10:21:29;;;;;;;14.50;8.73;;;;;;;3.24;100.00;95322.53;5048193;28;20068;-59
2022/04/02 10:24:07;;;;;;;14.45;9.23;;;;;;;3.47;100.00;95323.19;5048819;28;20084;-59
2022/04/02 10:26:38;;;;;;;15.00;10.02;;;;;;;3.63;100.00;95325.34;5047537;28;20107;-59
2022/04/02 10:29:11;;;;;;;14.48;9.80;;;;;;;3.42;100.00;95327.97;5048723;28;20065;-58
2022/04/02 10:31:45;;;;;;;12.50;8.88;;;;;;;3.49;100.00;95330.91;5047861;28;20167;-57
2022/04/02 10:34:18;;;;;;;16.00;10.07;;;;;;;3.68;100.00;95330.16;5048655;28;20103;-59
2022/04/02 10:36:50;;;;;;;14.63;10.05;;;;;;;3.79;100.00;95332.69;5040754;28;20071;-59
2022/04/02 10:39:23;;;;;;;11.75;8.43;;;;;;;3.33;100.00;95326.94;5047629;28;20080;-58
2022/04/02 10:41:55;;;;;;;18.30;10.02;;;;;;;3.60;100.00;95333.41;5048991;28;20091;-60
2022/04/02 10:44:32;;;;;;;14.60;9.07;;;;;;;3.50;100.00;95342.97;5048297;28;20545;-60
2022/04/02 10:47:03;;;;;;;12.55;10.27;;;;;;;4.09;100.00;95337.03;5048309;28;20519;-60
2022/04/02 10:49:35;;;;;;;13.18;10.23;;;;;;;4.14;100.00;95339.28;5048266;28;20167;-59
2022/04/02 10:52:04;;;;;;;16.70;7.85;;;;;;;3.39;100.00;95345.66;5048344;28;20057;-59
2022/04/02 10:54:35;;;;;;;7.22;6.05;;;;;;;3.10;100.00;95343.69;5048876;28;20071;-59
2022/04/02 10:57:04;;;;;;;11.32;7.68;;;;;;;2.90;100.00;95350.53;5047986;28;20073;-57
2022/04/02 10:59:32;;;;;;;14.68;9.48;;;;;;;3.03;100.00;95352.97;5047875;28;20482;-59
2022/04/02 11:02:02;;;;;;;9.85;8.25;;;;;;;3.33;100.00;95355.63;5047578;28;20458;-58
2022/04/02 11:04:37;;;;;;;10.98;7.78;;;;;;;3.19;100.00;95348.13;5048048;28;20056;-59
2022/04/02 11:07:06;;;;;;;14.57;10.32;;;;;;;3.70;100.00;95356.94;5048111;28;20061;-60
2022/04/02 11:09:36;;;;;;;14.13;9.10;;;;;;;3.59;100.00;95354.41;5047785;28;20060;-59
2022/04/02 11:12:07;;;;;;;13.40;9.02;;;;;;;3.72;100.00;95352.41;5051097;28;20665;-66
2022/04/02 11:14:40;;;;;;;10.25;8.43;;;;;;;3.45;100.00;95363.38;5068554;28;20080;-61
2022/04/02 11:17:10;;;;;;;12.18;9.10;;;;;;;3.93;100.00;95361.03;5052696;28;20068;-59
2022/04/02 11:19:56;;;;;;;14.23;8.57;;;;;;;4.01;100.00;95362.97;5047029;28;20061;-60
2022/04/02 11:22:29;;;;;;;7.70;6.47;;;;;;;3.66;100.00;95361.56;5047637;28;20538;-61
2022/04/02 11:25:03;;;;;;;10.35;8.38;;;;;;;4.17;100.00;95357.25;5047709;28;20068;-60
2022/04/02 11:27:36;;;;;;;9.27;8.15;;;;;;;4.41;100.00;95370.78;5048083;28;20062;-61
2022/04/02 11:30:07;;;;;;;10.52;8.82;;;;;;;5.37;100.00;95368.38;5049410;28;20076;-60
2022/04/02 11:32:41;;;;;;;9.70;8.05;;;;;;;4.48;100.00;95368.47;5052010;28;20091;-60
2022/04/02 11:35:14;;;;;;;9.35;6.82;;;;;;;4.43;100.00;95376.69;5051170;28;20093;-61
2022/04/02 11:38:04;;;;;;;6.78;6.07;;;;;;;4.48;100.00;95379.75;5050469;28;20072;-60
2022/04/02 11:40:33;;;;;;;9.85;7.50;;;;;;;4.47;100.00;95379.84;5050950;28;20068;-61